Time;durP1;ratioP1;P1;durP2;ratioP2;P2;SDS_P1;SDS_P2;PMS_P1;PMS_P2;Temp;Humidity;BMP_temperature;BMP_pressure;BME280_temperature;BME280_humidity;BME280_pressure;Samples;Min_cycle;Max_cycle;Signal;HPM_P1;HPM_P2
2021/08/15 00:02:20;;;;;;;17.25;12.15;;;21.00;78.00;;;;;;5046002;29;20053;-65
2021/08/15 00:04:52;;;;;;;13.82;11.50;;;21.00;78.20;;;;;;5047242;29;20885;-66
2021/08/15 00:07:24;;;;;;;18.30;11.60;;;21.00;78.10;;;;;;5055548;29;20041;-66
2021/08/15 00:09:56;;;;;;;14.23;12.00;;;21.00;77.90;;;;;;5057016;29;20067;-67
2021/08/15 00:12:31;;;;;;;16.92;11.73;;;21.00;77.50;;;;;;5056935;29;20717;-67
2021/08/15 00:15:08;;;;;;;18.10;11.73;;;21.00;77.20;;;;;;5053916;29;20049;-67
2021/08/15 00:17:42;;;;;;;20.02;11.60;;;21.00;77.10;;;;;;5045532;29;20124;-65
2021/08/15 00:20:14;;;;;;;18.83;12.23;;;21.00;77.50;;;;;;5058990;29;20136;-66
2021/08/15 00:22:49;;;;;;;19.38;12.68;;;21.00;77.70;;;;;;5047930;29;20037;-66
2021/08/15 00:25:21;;;;;;;16.38;12.27;;;21.00;78.00;;;;;;5051628;29;20112;-65
2021/08/15 00:27:53;;;;;;;18.15;12.52;;;20.90;78.30;;;;;;5048668;29;20125;-66
2021/08/15 00:30:26;;;;;;;18.05;12.30;;;21.00;77.50;;;;;;5046943;29;20552;-66
2021/08/15 00:33:03;;;;;;;16.75;12.15;;;20.90;77.40;;;;;;5056601;29;20653;-66
2021/08/15 00:35:35;;;;;;;15.15;10.98;;;21.00;77.50;;;;;;5050771;29;20044;-66
2021/08/15 00:38:07;;;;;;;14.35;11.30;;;20.90;78.00;;;;;;5051613;29;20468;-66
2021/08/15 00:40:39;;;;;;;18.67;12.10;;;20.90;78.10;;;;;;5045784;29;20145;-66
2021/08/15 00:43:11;;;;;;;16.15;11.57;;;20.80;78.10;;;;;;5052492;29;20117;-66
2021/08/15 00:45:43;;;;;;;15.60;12.07;;;20.80;77.50;;;;;;5044873;29;20053;-66
2021/08/15 00:48:15;;;;;;;20.08;12.25;;;20.80;77.30;;;;;;5049334;29;20041;-65
2021/08/15 00:50:47;;;;;;;15.80;12.73;;;20.70;78.50;;;;;;5055978;29;20049;-66
2021/08/15 00:53:19;;;;;;;19.42;12.38;;;20.70;78.40;;;;;;5051117;29;20115;-65
2021/08/15 00:55:50;;;;;;;17.92;12.23;;;20.70;77.90;;;;;;5053672;29;20051;-65
2021/08/15 00:58:22;;;;;;;16.70;11.73;;;20.60;77.60;;;;;;5049645;29;20147;-66
2021/08/15 01:00:54;;;;;;;21.67;12.65;;;20.60;77.80;;;;;;5051448;29;20140;-65
2021/08/15 01:03:30;;;;;;;17.73;12.35;;;20.60;78.60;;;;;;5053251;29;20665;-66
2021/08/15 01:06:03;;;;;;;16.92;12.02;;;20.60;78.60;;;;;;5051639;29;20049;-66
2021/08/15 01:08:36;;;;;;;15.85;12.05;;;20.60;78.70;;;;;;5054341;29;20756;-66
2021/08/15 01:11:10;;;;;;;17.83;12.57;;;20.60;78.30;;;;;;5048613;29;20768;-66
2021/08/15 01:13:42;;;;;;;13.70;11.80;;;20.60;78.50;;;;;;5050754;29;20072;-67
2021/08/15 01:16:14;;;;;;;16.13;11.93;;;20.50;78.20;;;;;;5046501;29;20069;-65
2021/08/15 01:18:46;;;;;;;16.60;12.15;;;20.50;78.50;;;;;;5052452;29;20049;-65
2021/08/15 01:21:17;;;;;;;14.63;12.20;;;20.50;78.50;;;;;;5051676;29;20144;-69
2021/08/15 01:23:49;;;;;;;18.23;12.65;;;20.50;78.90;;;;;;5048876;29;20048;-65
2021/08/15 01:26:22;;;;;;;18.10;11.73;;;20.50;78.70;;;;;;5046652;29;20511;-66
2021/08/15 01:28:54;;;;;;;17.08;11.80;;;20.50;79.00;;;;;;5048144;29;20152;-66
2021/08/15 01:31:26;;;;;;;20.27;12.40;;;20.50;79.20;;;;;;5045776;29;20135;-66
2021/08/15 01:33:58;;;;;;;19.20;12.45;;;20.40;78.80;;;;;;5045838;29;20527;-66
2021/08/15 01:36:30;;;;;;;18.70;12.40;;;20.20;79.60;;;;;;5047200;29;20626;-65
2021/08/15 01:39:02;;;;;;;15.63;12.02;;;20.00;79.90;;;;;;5047306;29;20064;-66
2021/08/15 01:41:34;;;;;;;16.77;12.43;;;20.00;80.20;;;;;;5049744;29;20507;-66
2021/08/15 01:44:06;;;;;;;18.50;11.73;;;20.00;79.80;;;;;;5047791;29;20067;-65
2021/08/15 01:46:38;;;;;;;18.38;11.75;;;20.00;80.10;;;;;;5043617;29;20059;-65
2021/08/15 01:49:10;;;;;;;17.42;12.88;;;20.00;80.20;;;;;;5047365;29;20136;-65
2021/08/15 01:51:42;;;;;;;15.93;11.82;;;20.00;79.80;;;;;;5046527;29;20045;-66
2021/08/15 01:54:13;;;;;;;16.48;12.30;;;20.00;79.40;;;;;;5047877;29;20131;-65
2021/08/15 01:56:45;;;;;;;19.92;12.52;;;20.00;80.50;;;;;;5051265;29;20132;-66
2021/08/15 01:59:17;;;;;;;19.23;12.63;;;19.90;80.60;;;;;;5044109;29;20045;-65
2021/08/15 02:01:49;;;;;;;14.48;11.65;;;19.80;80.30;;;;;;5045870;29;20066;-66
2021/08/15 02:04:24;;;;;;;19.05;12.07;;;19.80;80.80;;;;;;5050168;29;20100;-65
2021/08/15 02:06:56;;;;;;;18.92;11.88;;;19.80;79.90;;;;;;5049380;29;20046;-65
2021/08/15 02:09:28;;;;;;;14.85;12.15;;;19.80;80.40;;;;;;5048540;29;20157;-65
2021/08/15 02:12:02;;;;;;;13.82;11.68;;;19.80;79.90;;;;;;5043500;29;20068;-66
2021/08/15 02:14:34;;;;;;;16.27;11.63;;;19.80;81.40;;;;;;5043283;29;20048;-67
2021/08/15 02:17:06;;;;;;;15.07;12.30;;;19.80;81.50;;;;;;5049676;29;20136;-65
2021/08/15 02:19:38;;;;;;;16.48;12.20;;;19.80;81.30;;;;;;5042773;29;20128;-65
2021/08/15 02:22:10;;;;;;;22.13;12.43;;;19.80;80.80;;;;;;5044551;29;20076;-65
2021/08/15 02:24:42;;;;;;;19.42;12.55;;;19.80;81.20;;;;;;5046055;29;20045;-65
2021/08/15 02:27:14;;;;;;;16.20;12.52;;;19.80;82.10;;;;;;5044454;29;20057;-67
2021/08/15 02:29:45;;;;;;;16.67;12.30;;;19.70;81.80;;;;;;5048649;29;20044;-67
2021/08/15 02:32:17;;;;;;;17.85;13.23;;;19.70;81.60;;;;;;5043692;29;20127;-66
2021/08/15 02:34:49;;;;;;;16.60;11.77;;;19.70;82.10;;;;;;5040855;29;20604;-65
2021/08/15 02:37:21;;;;;;;15.80;12.27;;;19.70;81.40;;;;;;5045510;29;20049;-66
2021/08/15 02:39:53;;;;;;;17.08;12.68;;;19.70;80.90;;;;;;5043793;29;20045;-65
2021/08/15 02:42:29;;;;;;;17.58;13.07;;;19.80;81.30;;;;;;5043213;29;20044;-65
2021/08/15 02:45:02;;;;;;;16.80;13.63;;;19.80;81.50;;;;;;5042784;29;20076;-65
2021/08/15 02:47:35;;;;;;;17.58;12.90;;;19.80;82.00;;;;;;5043848;29;20098;-65
2021/08/15 02:50:07;;;;;;;17.20;12.35;;;19.70;81.80;;;;;;5049759;29;20149;-65
2021/08/15 02:52:40;;;;;;;16.23;12.73;;;19.70;81.40;;;;;;5048514;29;20040;-65
2021/08/15 02:55:12;;;;;;;16.48;12.82;;;19.70;81.70;;;;;;5051044;29;20568;-65
2021/08/15 02:57:44;;;;;;;16.90;12.10;;;19.70;81.60;;;;;;5044711;29;20049;-65
2021/08/15 03:00:16;;;;;;;18.55;11.82;;;19.60;81.40;;;;;;5046331;29;20048;-64
2021/08/15 03:02:48;;;;;;;18.55;11.32;;;19.60;80.90;;;;;;5049712;29;20044;-64
2021/08/15 03:05:25;;;;;;;16.27;12.20;;;19.60;80.90;;;;;;5050747;29;20495;-64
2021/08/15 03:07:56;;;;;;;16.45;12.77;;;19.60;80.60;;;;;;5052702;29;20703;-64
2021/08/15 03:10:28;;;;;;;18.70;13.02;;;19.60;80.70;;;;;;5048649;29;20045;-64
2021/08/15 03:13:05;;;;;;;17.92;12.48;;;19.60;81.10;;;;;;5048287;29;20051;-64
2021/08/15 03:15:39;;;;;;;14.95;11.23;;;19.50;81.30;;;;;;5048353;29;20468;-65
2021/08/15 03:18:17;;;;;;;15.52;11.73;;;19.40;80.80;;;;;;5049700;29;20061;-64
2021/08/15 03:20:50;;;;;;;19.48;12.27;;;19.40;81.30;;;;;;5052356;29;20543;-64
2021/08/15 03:23:28;;;;;;;15.88;12.18;;;19.40;81.20;;;;;;5052004;29;20124;-64
2021/08/15 03:26:00;;;;;;;14.52;11.77;;;19.30;81.60;;;;;;5047062;29;20097;-63
2021/08/15 03:28:32;;;;;;;18.20;12.02;;;19.30;81.20;;;;;;5053561;29;20734;-64
2021/08/15 03:31:04;;;;;;;18.00;12.23;;;19.30;81.50;;;;;;5054299;29;20108;-63
2021/08/15 03:33:36;;;;;;;16.95;12.07;;;19.30;81.60;;;;;;5049407;29;20053;-64
2021/08/15 03:36:09;;;;;;;17.67;12.25;;;19.30;81.20;;;;;;5051486;29;20059;-64
2021/08/15 03:38:40;;;;;;;18.45;12.85;;;19.30;81.10;;;;;;5048853;29;20045;-64
2021/08/15 03:41:12;;;;;;;15.90;12.10;;;19.30;81.60;;;;;;5050716;29;20582;-64
2021/08/15 03:43:44;;;;;;;17.88;13.32;;;19.30;83.00;;;;;;5048652;29;20574;-64
2021/08/15 03:46:16;;;;;;;19.85;13.65;;;19.20;82.00;;;;;;5046643;29;20053;-64
2021/08/15 03:48:48;;;;;;;15.88;12.38;;;19.20;82.30;;;;;;5049099;29;20108;-64
2021/08/15 03:51:20;;;;;;;16.70;12.70;;;19.10;83.10;;;;;;5047277;29;20155;-65
2021/08/15 03:53:52;;;;;;;18.58;11.63;;;19.20;82.50;;;;;;5047497;29;20164;-64
2021/08/15 03:56:24;;;;;;;15.85;12.73;;;19.20;81.80;;;;;;5048019;29;20061;-64
2021/08/15 03:58:56;;;;;;;17.48;11.90;;;19.10;81.70;;;;;;5047889;29;20120;-64
2021/08/15 04:01:28;;;;;;;17.85;12.63;;;19.10;81.70;;;;;;5047385;29;20064;-64
2021/08/15 04:04:00;;;;;;;18.10;12.95;;;19.10;81.70;;;;;;5048343;29;20407;-65
2021/08/15 04:06:34;;;;;;;19.73;12.98;;;19.10;82.70;;;;;;5046748;29;20080;-64
2021/08/15 04:09:06;;;;;;;15.43;12.68;;;19.10;82.50;;;;;;5046300;29;20116;-64
2021/08/15 04:11:39;;;;;;;18.75;12.18;;;19.00;82.10;;;;;;5045151;29;20127;-64
2021/08/15 04:14:11;;;;;;;15.07;12.25;;;19.00;81.90;;;;;;5048627;29;20097;-64
2021/08/15 04:16:43;;;;;;;18.83;13.07;;;19.00;82.10;;;;;;5044598;29;20055;-64
2021/08/15 04:19:15;;;;;;;15.80;13.35;;;19.00;83.60;;;;;;5046994;29;20916;-65
2021/08/15 04:21:46;;;;;;;14.95;12.27;;;19.00;83.70;;;;;;5046881;29;20059;-66
2021/08/15 04:24:18;;;;;;;14.52;12.05;;;19.00;82.80;;;;;;5047680;29;20041;-65
2021/08/15 04:26:50;;;;;;;20.10;12.98;;;19.00;82.50;;;;;;5045504;29;20618;-65
2021/08/15 04:29:22;;;;;;;18.85;12.80;;;19.00;83.00;;;;;;5048117;29;20120;-65
2021/08/15 04:31:54;;;;;;;15.93;12.55;;;19.00;83.50;;;;;;5045804;29;20055;-65
2021/08/15 04:34:26;;;;;;;15.43;11.10;;;19.00;83.30;;;;;;5044252;29;20099;-67
2021/08/15 04:36:58;;;;;;;16.05;12.13;;;19.00;83.30;;;;;;5046539;29;20072;-65
2021/08/15 04:39:30;;;;;;;20.15;13.20;;;19.00;83.50;;;;;;5044900;29;20174;-65
2021/08/15 04:42:02;;;;;;;15.40;12.18;;;19.00;84.90;;;;;;5048366;29;20075;-65
2021/08/15 04:44:34;;;;;;;17.45;12.38;;;19.10;85.50;;;;;;5042126;29;20068;-65
2021/08/15 04:47:06;;;;;;;15.45;12.90;;;19.10;85.90;;;;;;5045805;29;20554;-64
2021/08/15 04:49:38;;;;;;;21.50;13.68;;;19.10;85.40;;;;;;5048286;29;20052;-65
2021/08/15 04:52:10;;;;;;;15.05;12.48;;;19.10;85.30;;;;;;5048087;29;20527;-64
2021/08/15 04:54:42;;;;;;;16.63;12.50;;;19.20;85.50;;;;;;5043595;29;20059;-65
2021/08/15 04:57:14;;;;;;;17.02;12.38;;;19.30;84.40;;;;;;5048026;29;20052;-65
2021/08/15 04:59:46;;;;;;;16.77;12.50;;;19.30;83.40;;;;;;5042903;29;20045;-64
2021/08/15 05:02:17;;;;;;;15.75;13.30;;;19.30;82.60;;;;;;5044875;29;20048;-64
2021/08/15 05:04:49;;;;;;;17.13;13.20;;;19.30;82.20;;;;;;5049741;29;20049;-64
2021/08/15 05:07:21;;;;;;;14.65;13.18;;;19.20;82.40;;;;;;5047010;29;20084;-64
2021/08/15 05:09:53;;;;;;;15.70;12.13;;;19.20;82.40;;;;;;5043452;29;20053;-64
2021/08/15 05:12:25;;;;;;;15.38;13.32;;;19.30;83.30;;;;;;5046135;29;20534;-63
2021/08/15 05:14:57;;;;;;;16.63;13.23;;;19.40;82.90;;;;;;5046713;29;20415;-64
2021/08/15 05:17:29;;;;;;;14.40;12.63;;;19.30;83.60;;;;;;5049574;29;20049;-63
2021/08/15 05:20:01;;;;;;;15.07;13.48;;;19.30;83.10;;;;;;5045221;29;20163;-64
2021/08/15 05:22:33;;;;;;;17.27;13.02;;;19.40;82.90;;;;;;5047056;29;20109;-65
2021/08/15 05:25:05;;;;;;;16.63;13.93;;;19.50;82.50;;;;;;5050180;29;20143;-64
2021/08/15 05:27:38;;;;;;;19.08;12.70;;;19.70;82.70;;;;;;5044336;29;20619;-64
2021/08/15 05:30:10;;;;;;;17.80;13.38;;;19.80;83.00;;;;;;5043983;29;20073;-64
2021/08/15 05:32:42;;;;;;;15.40;12.60;;;20.00;83.00;;;;;;5049613;29;20413;-63
2021/08/15 05:35:14;;;;;;;17.45;13.52;;;20.00;82.60;;;;;;5045680;29;20570;-65
2021/08/15 05:37:50;;;;;;;17.00;13.40;;;20.10;81.90;;;;;;5053347;29;20061;-64
2021/08/15 05:40:22;;;;;;;18.05;13.63;;;20.20;81.20;;;;;;5045488;29;20135;-65
2021/08/15 05:42:56;;;;;;;18.70;13.35;;;20.30;80.20;;;;;;5048272;29;20124;-64
2021/08/15 05:45:28;;;;;;;19.35;14.82;;;20.40;80.00;;;;;;5043478;29;20049;-65
2021/08/15 05:48:01;;;;;;;22.17;15.77;;;20.60;79.40;;;;;;5049652;29;20057;-65
2021/08/15 05:50:33;;;;;;;18.30;13.90;;;20.70;79.50;;;;;;5048444;29;20061;-65
2021/08/15 05:53:05;;;;;;;19.17;15.52;;;20.80;79.10;;;;;;5047082;29;20649;-65
2021/08/15 05:55:37;;;;;;;16.50;13.90;;;20.80;78.70;;;;;;5045607;29;20045;-66
2021/08/15 05:58:09;;;;;;;16.20;14.10;;;20.90;78.30;;;;;;5043426;29;20053;-65
2021/08/15 06:00:41;;;;;;;16.88;14.13;;;21.00;78.80;;;;;;5053385;29;20132;-65
2021/08/15 06:03:13;;;;;;;17.13;14.05;;;21.10;79.20;;;;;;5837591;23;20512;-71
2021/08/15 06:05:45;;;;;;;18.65;13.95;;;21.20;77.60;;;;;;5048408;23;20052;-70
2021/08/15 06:08:17;;;;;;;15.88;13.35;;;21.30;78.10;;;;;;5028807;29;20053;-68
2021/08/15 06:10:52;;;;;;;16.23;13.70;;;21.50;77.30;;;;;;5033559;29;20565;-69
2021/08/15 06:13:24;;;;;;;16.38;13.82;;;21.50;76.60;;;;;;5030906;29;20144;-70
2021/08/15 06:15:56;;;;;;;17.52;14.43;;;21.60;76.30;;;;;;5030211;29;20181;-69
2021/08/15 06:18:28;;;;;;;20.05;14.95;;;21.70;77.10;;;;;;5017522;29;20049;-70
2021/08/15 06:20:59;;;;;;;16.33;14.35;;;21.70;77.60;;;;;;5017679;29;20766;-69
2021/08/15 06:23:34;;;;;;;15.90;13.77;;;21.80;77.50;;;;;;5016948;29;20053;-69
2021/08/15 06:26:06;;;;;;;18.67;14.55;;;22.00;78.00;;;;;;5017604;29;20046;-69
2021/08/15 06:28:37;;;;;;;19.27;14.40;;;22.10;76.70;;;;;;5020017;29;20081;-69
2021/08/15 06:31:24;;;;;;;15.90;13.20;;;22.20;77.30;;;;;;5015758;29;20186;-71
2021/08/15 06:33:57;;;;;;;17.08;13.90;;;22.30;75.80;;;;;;5018608;29;20383;-69
2021/08/15 06:36:29;;;;;;;18.35;14.73;;;22.40;76.10;;;;;;5019020;29;20057;-68
2021/08/15 06:39:01;;;;;;;21.40;14.75;;;22.50;74.10;;;;;;5023796;29;20061;-69
2021/08/15 06:41:33;;;;;;;17.95;15.35;;;22.70;75.00;;;;;;5022150;29;20533;-68
2021/08/15 06:44:05;;;;;;;22.02;15.60;;;22.80;73.80;;;;;;5022347;29;20073;-68
2021/08/15 06:46:37;;;;;;;18.67;14.70;;;22.80;71.80;;;;;;5021354;29;20078;-68
2021/08/15 06:49:09;;;;;;;18.58;14.35;;;22.90;73.50;;;;;;5022969;29;20776;-68
2021/08/15 06:51:44;;;;;;;17.88;14.88;;;23.10;74.10;;;;;;5020510;29;20101;-68
2021/08/15 06:54:16;;;;;;;21.17;15.38;;;23.20;74.30;;;;;;5019378;29;20064;-68
2021/08/15 06:56:48;;;;;;;19.15;14.20;;;23.30;73.40;;;;;;5021682;29;20041;-68
2021/08/15 06:59:20;;;;;;;17.80;14.60;;;23.40;74.20;;;;;;5021460;29;20575;-70
2021/08/15 07:01:52;;;;;;;18.48;15.02;;;23.50;72.30;;;;;;5018856;29;20045;-68
2021/08/15 07:04:24;;;;;;;17.25;14.63;;;23.50;73.10;;;;;;5021078;29;20097;-68
2021/08/15 07:06:56;;;;;;;18.80;15.25;;;23.60;72.80;;;;;;5022110;29;20068;-69
2021/08/15 07:09:28;;;;;;;18.15;15.20;;;23.80;73.50;;;;;;5021958;29;20053;-70
2021/08/15 07:12:00;;;;;;;20.10;15.20;;;23.90;73.10;;;;;;5019919;29;20121;-69
2021/08/15 07:14:32;;;;;;;17.33;15.45;;;24.00;72.60;;;;;;5021830;29;20901;-70
2021/08/15 07:17:04;;;;;;;17.67;15.82;;;24.10;71.80;;;;;;5019145;29;20836;-69
2021/08/15 07:19:37;;;;;;;17.90;15.25;;;24.20;72.30;;;;;;5021261;29;20061;-69
2021/08/15 07:22:09;;;;;;;22.08;15.55;;;24.40;70.00;;;;;;5018683;29;20125;-69
2021/08/15 07:24:41;;;;;;;19.58;15.02;;;24.40;70.50;;;;;;5018541;29;20041;-69
2021/08/15 07:27:13;;;;;;;17.83;15.45;;;24.60;70.00;;;;;;4999095;29;20054;-69
2021/08/15 07:29:45;;;;;;;16.60;14.90;;;24.70;69.00;;;;;;5018492;29;20563;-69
2021/08/15 07:32:17;;;;;;;20.75;16.00;;;24.80;68.10;;;;;;5018406;29;21056;-69
2021/08/15 07:34:49;;;;;;;17.75;15.75;;;24.90;66.20;;;;;;5018649;29;20541;-69
2021/08/15 07:37:21;;;;;;;21.25;15.80;;;25.00;65.50;;;;;;5019442;29;20053;-69
2021/08/15 07:39:53;;;;;;;18.63;15.73;;;25.00;66.70;;;;;;4998770;29;20072;-69
2021/08/15 07:42:25;;;;;;;18.48;14.95;;;25.00;66.70;;;;;;5018892;29;20132;-68
2021/08/15 07:44:57;;;;;;;18.02;15.60;;;25.20;66.60;;;;;;5020078;29;20136;-70
2021/08/15 07:47:28;;;;;;;17.67;15.57;;;25.30;66.10;;;;;;5033729;29;20396;-68
2021/08/15 07:50:01;;;;;;;20.83;15.63;;;25.50;66.20;;;;;;5019199;29;20077;-69
2021/08/15 07:52:33;;;;;;;18.38;15.95;;;25.50;68.00;;;;;;5017360;29;20053;-68
2021/08/15 07:55:06;;;;;;;17.55;15.52;;;25.60;65.10;;;;;;5019009;29;20507;-70
2021/08/15 07:57:38;;;;;;;18.33;15.10;;;25.70;63.60;;;;;;5020355;29;20141;-69
2021/08/15 08:00:11;;;;;;;17.33;15.05;;;25.80;66.40;;;;;;5015901;29;20752;-69
2021/08/15 08:02:43;;;;;;;17.67;15.95;;;25.90;63.10;;;;;;5019282;29;20491;-70
2021/08/15 08:05:15;;;;;;;18.50;16.25;;;25.90;64.90;;;;;;5019439;29;20138;-70
2021/08/15 08:07:47;;;;;;;17.90;15.30;;;25.80;61.50;;;;;;5020267;29;20116;-69
2021/08/15 08:10:19;;;;;;;18.73;15.45;;;25.90;62.30;;;;;;5020416;29;20042;-70
2021/08/15 08:12:51;;;;;;;18.80;16.45;;;26.10;61.80;;;;;;5019267;29;20387;-70
2021/08/15 08:15:24;;;;;;;17.67;15.82;;;26.10;62.50;;;;;;5033093;29;20049;-72
2021/08/15 08:17:56;;;;;;;17.92;15.32;;;26.20;60.90;;;;;;5020905;29;20054;-72
2021/08/15 08:20:32;;;;;;;17.63;15.32;;;26.20;62.60;;;;;;5016603;29;20435;-72
2021/08/15 08:23:11;;;;;;;20.58;16.13;;;26.40;58.60;;;;;;5017866;29;20128;-73
2021/08/15 08:25:45;;;;;;;19.42;15.82;;;26.50;61.60;;;;;;5015804;29;20148;-72
2021/08/15 08:28:17;;;;;;;18.70;15.48;;;26.70;60.60;;;;;;5020260;29;20532;-72
2021/08/15 08:30:49;;;;;;;18.17;15.30;;;26.80;60.70;;;;;;5019768;29;20124;-71
2021/08/15 08:33:22;;;;;;;17.08;15.27;;;26.90;59.60;;;;;;5031975;29;20041;-71
2021/08/15 08:35:53;;;;;;;20.58;16.00;;;27.00;59.70;;;;;;5016228;29;20421;-70
2021/08/15 08:38:26;;;;;;;17.08;15.30;;;27.10;56.50;;;;;;5017561;29;20831;-71
2021/08/15 08:40:59;;;;;;;18.88;15.57;;;27.10;58.30;;;;;;5018920;29;20081;-71
2021/08/15 08:43:32;;;;;;;19.88;16.10;;;27.30;60.50;;;;;;5017929;29;20045;-70
2021/08/15 08:46:04;;;;;;;17.52;15.23;;;27.40;59.20;;;;;;5019340;29;20133;-70
2021/08/15 08:48:36;;;;;;;21.48;16.23;;;27.50;60.40;;;;;;5019931;29;20468;-70
2021/08/15 08:51:09;;;;;;;17.77;15.85;;;27.60;61.30;;;;;;5018291;29;20077;-69
2021/08/15 08:53:41;;;;;;;18.52;16.35;;;27.60;60.30;;;;;;5020282;29;20137;-70
2021/08/15 08:56:13;;;;;;;20.85;16.70;;;27.70;61.10;;;;;;5017668;29;20659;-71
2021/08/15 08:58:45;;;;;;;22.05;17.52;;;27.80;60.50;;;;;;5028029;29;20737;-70
2021/08/15 09:01:17;;;;;;;23.48;16.33;;;27.80;61.10;;;;;;5020234;29;20054;-71
2021/08/15 09:03:49;;;;;;;19.58;15.48;;;27.90;59.30;;;;;;5015758;29;20154;-70
2021/08/15 09:06:23;;;;;;;18.25;16.42;;;28.10;60.30;;;;;;5019239;29;20049;-70
2021/08/15 09:08:55;;;;;;;18.58;16.67;;;28.00;61.50;;;;;;5019760;29;20065;-70
2021/08/15 09:11:27;;;;;;;18.50;16.60;;;28.00;61.50;;;;;;5018360;29;20128;-70
2021/08/15 09:14:03;;;;;;;17.95;16.08;;;28.10;63.00;;;;;;5016036;29;20995;-70
2021/08/15 09:16:50;;;;;;;21.48;17.30;;;28.10;61.30;;;;;;5018319;29;20144;-70
2021/08/15 09:19:35;;;;;;;19.25;16.52;;;28.20;61.70;;;;;;5019696;29;20041;-72
2021/08/15 09:22:25;;;;;;;22.48;17.27;;;28.30;61.70;;;;;;5018551;29;20152;-70
2021/08/15 09:25:09;;;;;;;20.58;17.30;;;28.40;60.40;;;;;;5019494;29;20041;-70
2021/08/15 09:27:54;;;;;;;21.98;16.90;;;28.50;61.40;;;;;;5015916;29;20144;-70
2021/08/15 09:30:30;;;;;;;18.42;16.52;;;28.60;60.90;;;;;;5018253;29;20053;-70
2021/08/15 09:33:15;;;;;;;20.08;16.77;;;28.50;60.10;;;;;;5033004;29;20066;-70
2021/08/15 09:35:49;;;;;;;19.13;17.02;;;28.50;61.30;;;;;;5017297;29;20065;-70
2021/08/15 09:38:21;;;;;;;22.42;17.33;;;28.60;61.50;;;;;;5014912;29;20044;-70
2021/08/15 09:40:55;;;;;;;19.25;17.25;;;28.60;61.40;;;;;;5019295;29;20063;-69
2021/08/15 09:43:30;;;;;;;21.02;17.30;;;28.70;60.20;;;;;;5016578;29;20656;-71
2021/08/15 09:46:02;;;;;;;19.48;17.48;;;28.80;62.10;;;;;;5018258;29;20045;-71
2021/08/15 09:48:39;;;;;;;19.02;17.05;;;28.90;60.50;;;;;;5018889;29;20045;-71
2021/08/15 09:51:22;;;;;;;18.33;16.42;;;28.90;61.40;;;;;;5017665;29;20085;-71
2021/08/15 09:53:55;;;;;;;19.17;16.88;;;28.70;62.00;;;;;;5019210;29;20061;-71
2021/08/15 09:56:45;;;;;;;18.90;17.00;;;28.60;62.40;;;;;;5018082;29;20053;-70
2021/08/15 09:59:18;;;;;;;20.52;17.33;;;28.40;63.30;;;;;;5032904;29;20096;-72
2021/08/15 10:01:52;;;;;;;19.00;16.77;;;28.50;63.20;;;;;;5015907;29;20101;-71
2021/08/15 10:04:25;;;;;;;21.70;16.95;;;28.60;61.00;;;;;;5015504;29;20049;-71
2021/08/15 10:06:57;;;;;;;19.98;16.77;;;28.70;62.80;;;;;;5012891;29;20156;-71
2021/08/15 10:09:30;;;;;;;20.65;17.23;;;28.80;61.00;;;;;;5017575;29;20134;-71
2021/08/15 10:12:02;;;;;;;19.75;17.77;;;28.90;61.80;;;;;;5019166;29;20128;-71
2021/08/15 10:14:34;;;;;;;18.05;16.23;;;29.00;61.00;;;;;;5016331;29;20112;-71
2021/08/15 10:17:11;;;;;;;20.55;17.92;;;29.10;60.20;;;;;;5013689;29;20053;-72
2021/08/15 10:19:45;;;;;;;21.33;18.38;;;29.10;60.30;;;;;;5019329;29;20105;-71
2021/08/15 10:22:39;;;;;;;19.58;17.13;;;29.30;61.40;;;;;;5016998;29;20161;-72
2021/08/15 10:25:37;;;;;;;22.98;17.45;;;29.30;61.80;;;;;;5009318;29;20149;-71
2021/08/15 10:28:29;;;;;;;22.33;17.75;;;29.40;61.50;;;;;;5018987;29;20446;-71
2021/08/15 10:31:02;;;;;;;21.77;17.80;;;29.50;59.50;;;;;;5017446;29;20136;-72
2021/08/15 10:33:52;;;;;;;23.27;17.65;;;29.60;60.20;;;;;;5017970;29;20522;-73
2021/08/15 10:36:27;;;;;;;19.60;17.23;;;29.70;59.70;;;;;;5013208;29;20049;-72
2021/08/15 10:39:00;;;;;;;20.58;18.35;;;29.80;58.40;;;;;;5017396;29;20050;-72
2021/08/15 10:41:44;;;;;;;22.20;18.35;;;29.90;58.30;;;;;;5016844;29;20069;-72
2021/08/15 10:44:17;;;;;;;21.55;18.20;;;29.90;57.60;;;;;;5018122;29;20089;-72
2021/08/15 10:47:07;;;;;;;20.13;18.02;;;30.00;56.90;;;;;;5017021;29;20141;-70
2021/08/15 10:49:53;;;;;;;19.35;17.38;;;30.10;56.80;;;;;;5018110;29;20083;-71
2021/08/15 10:52:39;;;;;;;19.85;17.48;;;30.30;56.10;;;;;;5017350;29;20049;-71
2021/08/15 10:55:15;;;;;;;19.25;17.27;;;30.50;56.00;;;;;;5016725;29;20332;-71
2021/08/15 10:57:50;;;;;;;20.65;17.92;;;30.60;55.40;;;;;;5015618;29;20145;-71
2021/08/15 11:00:29;;;;;;;21.33;18.80;;;30.70;54.30;;;;;;5019815;29;20998;-69
2021/08/15 11:03:13;;;;;;;20.23;18.23;;;30.80;57.10;;;;;;5017953;29;20067;-71
2021/08/15 11:05:45;;;;;;;20.00;18.15;;;30.80;55.90;;;;;;5016856;29;20531;-70
2021/08/15 11:08:32;;;;;;;20.85;18.13;;;30.90;56.10;;;;;;5017678;29;21057;-71
2021/08/15 11:11:16;;;;;;;22.10;18.65;;;31.00;55.30;;;;;;5018436;29;20578;-71
2021/08/15 11:14:24;;;;;;;20.15;18.10;;;31.10;54.50;;;;;;5017440;29;20076;-72
2021/08/15 11:17:10;;;;;;;20.35;17.95;;;31.20;54.50;;;;;;5015389;29;20058;-70
2021/08/15 11:19:43;;;;;;;21.35;18.15;;;31.30;51.40;;;;;;5031592;29;20603;-70
2021/08/15 11:22:25;;;;;;;20.58;18.58;;;31.30;51.80;;;;;;5016978;29;20113;-70
2021/08/15 11:25:03;;;;;;;20.35;18.35;;;31.30;51.10;;;;;;5019167;29;20635;-70
2021/08/15 11:27:37;;;;;;;19.98;17.88;;;31.40;49.40;;;;;;5019982;29;20049;-70
2021/08/15 11:30:20;;;;;;;19.50;17.60;;;31.50;47.10;;;;;;5020255;29;20073;-70
2021/08/15 11:32:53;;;;;;;19.35;17.42;;;31.50;45.30;;;;;;5021169;29;20174;-70
2021/08/15 11:35:33;;;;;;;19.98;17.60;;;31.50;43.90;;;;;;5022321;29;20045;-71
2021/08/15 11:38:08;;;;;;;;;;;31.60;47.00;;;;;;5024308;29;20165;-71
2021/08/15 11:40:52;;;;;;;19.95;17.58;;;31.70;45.30;;;;;;5021769;29;20709;-71
2021/08/15 11:43:27;;;;;;;19.17;17.35;;;31.80;44.90;;;;;;5018036;29;20443;-71
2021/08/15 11:45:59;;;;;;;19.67;17.55;;;31.90;43.60;;;;;;5021425;29;20037;-70
2021/08/15 11:48:31;;;;;;;20.75;17.75;;;31.90;46.20;;;;;;5017989;29;20057;-71
2021/08/15 11:51:08;;;;;;;19.55;16.67;;;32.00;42.40;;;;;;5020813;29;20050;-70
2021/08/15 11:53:44;;;;;;;19.10;17.08;;;31.90;43.10;;;;;;5020659;29;20555;-71
2021/08/15 11:56:18;;;;;;;20.48;16.45;;;31.90;41.10;;;;;;5020112;29;20133;-70
2021/08/15 11:58:59;;;;;;;20.30;17.13;;;31.90;41.50;;;;;;5018412;29;20053;-71
2021/08/15 12:01:31;;;;;;;19.13;16.95;;;31.80;42.80;;;;;;5019797;29;20115;-73
2021/08/15 12:04:05;;;;;;;18.98;17.02;;;31.80;40.20;;;;;;5021630;29;20077;-71
2021/08/15 12:06:40;;;;;;;20.13;17.70;;;31.80;43.80;;;;;;5023096;29;20161;-70
2021/08/15 12:09:27;;;;;;;23.15;16.70;;;31.90;44.70;;;;;;5036520;29;20064;-71
2021/08/15 12:11:59;;;;;;;18.55;16.85;;;32.00;41.90;;;;;;5021496;29;20045;-70
2021/08/15 12:14:36;;;;;;;18.42;16.63;;;32.10;42.80;;;;;;5021082;29;20468;-71
2021/08/15 12:17:09;;;;;;;17.77;16.08;;;32.20;39.40;;;;;;5020114;29;20192;-70
2021/08/15 12:19:45;;;;;;;18.13;16.40;;;32.20;39.20;;;;;;5017491;29;20060;-70
2021/08/15 12:22:18;;;;;;;18.73;17.00;;;32.30;40.90;;;;;;5033523;29;20133;-72
2021/08/15 12:24:57;;;;;;;19.10;17.20;;;32.50;44.10;;;;;;5018371;29;20049;-71
2021/08/15 12:27:29;;;;;;;19.23;17.35;;;32.50;41.40;;;;;;5031899;29;20545;-70
2021/08/15 12:30:02;;;;;;;20.45;18.13;;;32.60;43.60;;;;;;5020779;29;20141;-72
2021/08/15 12:32:33;;;;;;;19.70;17.88;;;32.60;42.80;;;;;;5016872;29;20053;-71
2021/08/15 12:35:08;;;;;;;19.15;17.35;;;32.70;43.70;;;;;;5020618;29;20045;-72
2021/08/15 12:37:43;;;;;;;19.23;17.23;;;32.80;42.70;;;;;;5032799;29;20044;-72
2021/08/15 12:40:19;;;;;;;19.48;17.00;;;32.80;41.20;;;;;;5018426;29;20050;-72
2021/08/15 12:42:55;;;;;;;19.05;17.10;;;32.50;40.40;;;;;;5020945;29;20125;-71
2021/08/15 12:45:39;;;;;;;18.48;16.77;;;32.50;43.10;;;;;;5019910;29;20045;-72
2021/08/15 12:48:12;;;;;;;20.08;16.63;;;32.40;39.80;;;;;;5019678;29;20459;-72
2021/08/15 12:50:47;;;;;;;18.23;16.52;;;32.40;39.90;;;;;;5020895;29;20041;-71
2021/08/15 12:53:22;;;;;;;17.83;15.95;;;32.40;43.30;;;;;;5034341;29;20057;-72
2021/08/15 12:55:54;;;;;;;18.27;16.45;;;32.30;40.50;;;;;;5019813;29;20054;-72
2021/08/15 12:58:26;;;;;;;18.85;16.92;;;32.30;41.40;;;;;;5016276;29;20169;-71
2021/08/15 13:01:02;;;;;;;18.48;16.63;;;32.00;39.70;;;;;;5018008;29;20133;-71
2021/08/15 13:03:35;;;;;;;20.17;16.70;;;31.90;40.30;;;;;;5019308;29;20046;-71